Time;durP1;ratioP1;P1;durP2;ratioP2;P2;SDS_P1;SDS_P2;PMS_P1;PMS_P2;Temp;Humidity;BMP_temperature;BMP_pressure;BME280_temperature;BME280_humidity;BME280_pressure;Samples;Min_cycle;Max_cycle;Signal;HPM_P1;HPM_P2
2024/03/09 00:00:16;;;;;;;70.30;13.35;;;;;;;;;;5066887;28;20256;-70
2024/03/09 00:02:43;;;;;;;70.10;13.25;;;;;;;;;;5067353;28;20221;-70
2024/03/09 00:05:10;;;;;;;71.68;13.18;;;;;;;;;;5067236;28;20222;-70
2024/03/09 00:07:37;;;;;;;73.63;12.85;;;;;;;;;;5067187;28;20222;-70
2024/03/09 00:10:07;;;;;;;70.10;13.77;;;;;;;;;;5066453;28;20296;-70
2024/03/09 00:12:36;;;;;;;71.80;13.95;;;;;;;;;;5064146;28;20288;-69
2024/03/09 00:15:03;;;;;;;70.63;12.45;;;;;;;;;;5053817;28;20237;-69
2024/03/09 00:17:31;;;;;;;72.53;13.60;;;;;;;;;;5053897;28;20265;-69
2024/03/09 00:19:58;;;;;;;70.93;12.75;;;;;;;;;;5053174;28;20207;-70
2024/03/09 00:22:25;;;;;;;68.63;12.55;;;;;;;;;;5046866;28;20586;-70
2024/03/09 00:24:53;;;;;;;70.00;13.05;;;;;;;;;;5053750;28;20206;-70
2024/03/09 00:27:24;;;;;;;70.65;12.75;;;;;;;;;;5053291;28;20226;-70
2024/03/09 00:29:54;;;;;;;68.35;11.27;;;;;;;;;;5053740;28;20213;-70
2024/03/09 00:32:21;;;;;;;71.05;12.57;;;;;;;;;;5049863;28;20291;-70
2024/03/09 00:34:50;;;;;;;71.07;12.98;;;;;;;;;;5053501;28;20208;-70
2024/03/09 00:37:17;;;;;;;66.70;10.73;;;;;;;;;;5053690;28;20227;-70
2024/03/09 00:39:44;;;;;;;69.53;12.10;;;;;;;;;;5053783;28;20586;-70
2024/03/09 00:42:14;;;;;;;69.72;12.90;;;;;;;;;;5052442;28;20226;-70
2024/03/09 00:44:41;;;;;;;75.55;13.73;;;;;;;;;;5051832;28;20518;-70
2024/03/09 00:47:10;;;;;;;71.03;13.02;;;;;;;;;;5053052;28;20226;-69
2024/03/09 00:49:37;;;;;;;72.75;12.85;;;;;;;;;;5053667;28;20203;-69
2024/03/09 00:52:06;;;;;;;72.88;14.68;;;;;;;;;;5050410;28;20720;-69
2024/03/09 00:54:35;;;;;;;71.70;13.52;;;;;;;;;;5047657;28;20203;-69
2024/03/09 00:57:03;;;;;;;71.55;13.15;;;;;;;;;;5053057;28;20734;-70
2024/03/09 00:59:30;;;;;;;71.78;13.93;;;;;;;;;;5053244;28;20260;-70
2024/03/09 01:02:00;;;;;;;76.20;13.00;;;;;;;;;;5052119;28;20230;-70
2024/03/09 01:04:28;;;;;;;68.20;12.80;;;;;;;;;;5053246;28;20208;-70
2024/03/09 01:06:55;;;;;;;68.80;11.65;;;;;;;;;;5052852;28;20770;-70
2024/03/09 01:09:23;;;;;;;71.20;11.95;;;;;;;;;;5053133;28;20205;-70
2024/03/09 01:11:52;;;;;;;70.28;13.23;;;;;;;;;;5052745;28;20273;-70
2024/03/09 01:14:19;;;;;;;69.50;13.50;;;;;;;;;;5052463;28;20683;-70
2024/03/09 01:16:46;;;;;;;68.68;11.48;;;;;;;;;;5052927;28;20313;-70
2024/03/09 01:19:14;;;;;;;73.93;14.90;;;;;;;;;;5052944;28;20210;-70
2024/03/09 01:21:42;;;;;;;70.00;13.57;;;;;;;;;;5047985;28;20313;-70
2024/03/09 01:24:10;;;;;;;69.63;12.90;;;;;;;;;;5049493;28;20198;-69
2024/03/09 01:26:37;;;;;;;70.55;13.70;;;;;;;;;;5051704;28;20226;-69
2024/03/09 01:29:05;;;;;;;72.50;12.85;;;;;;;;;;5052446;28;20253;-69
2024/03/09 01:31:34;;;;;;;71.93;12.38;;;;;;;;;;5046107;28;20202;-70
2024/03/09 01:34:01;;;;;;;69.43;13.27;;;;;;;;;;5052956;28;20202;-70
2024/03/09 01:36:28;;;;;;;67.03;11.80;;;;;;;;;;5052333;28;20218;-70
2024/03/09 01:38:57;;;;;;;70.00;11.98;;;;;;;;;;5052608;28;20202;-70
2024/03/09 01:41:25;;;;;;;68.68;12.27;;;;;;;;;;5047708;28;20209;-70
2024/03/09 01:43:52;;;;;;;69.20;13.38;;;;;;;;;;5052372;28;20221;-70
2024/03/09 01:46:20;;;;;;;68.97;12.00;;;;;;;;;;5052169;28;20599;-70
2024/03/09 01:48:48;;;;;;;73.85;13.27;;;;;;;;;;5052575;28;20202;-70
2024/03/09 01:51:17;;;;;;;68.85;12.30;;;;;;;;;;5052371;28;20240;-70
2024/03/09 01:53:46;;;;;;;73.20;13.55;;;;;;;;;;5045801;28;20203;-70
2024/03/09 01:56:15;;;;;;;70.13;13.15;;;;;;;;;;5052007;28;20603;-70
2024/03/09 01:58:42;;;;;;;70.95;12.43;;;;;;;;;;5052441;28;20201;-70
2024/03/09 02:01:22;;;;;;;70.20;12.32;;;;;;;;;;5045433;28;20207;-70
2024/03/09 02:03:52;;;;;;;70.35;12.00;;;;;;;;;;5051970;28;20231;-69
2024/03/09 02:06:19;;;;;;;68.25;11.00;;;;;;;;;;5051698;28;20227;-70
2024/03/09 02:08:46;;;;;;;72.00;12.00;;;;;;;;;;5052350;28;20210;-70
2024/03/09 02:11:15;;;;;;;70.47;11.80;;;;;;;;;;5051395;28;20218;-70
2024/03/09 02:13:43;;;;;;;74.18;14.27;;;;;;;;;;5052059;28;20209;-70
2024/03/09 02:16:12;;;;;;;69.35;12.35;;;;;;;;;;5050024;28;20735;-69
2024/03/09 02:18:40;;;;;;;69.97;12.52;;;;;;;;;;5051895;28;20206;-69
2024/03/09 02:21:09;;;;;;;68.38;12.70;;;;;;;;;;5051048;28;20232;-70
2024/03/09 02:23:36;;;;;;;69.63;12.32;;;;;;;;;;5051636;28;20702;-70
2024/03/09 02:26:06;;;;;;;71.43;13.93;;;;;;;;;;5051570;28;20583;-70
2024/03/09 02:28:34;;;;;;;72.93;12.73;;;;;;;;;;5051736;28;20203;-70
2024/03/09 02:31:02;;;;;;;69.03;12.68;;;;;;;;;;5051358;28;20198;-70
2024/03/09 02:33:29;;;;;;;72.63;14.15;;;;;;;;;;5050280;28;20217;-70
2024/03/09 02:35:56;;;;;;;72.55;12.90;;;;;;;;;;5047647;28;20568;-70
2024/03/09 02:38:25;;;;;;;69.03;13.05;;;;;;;;;;5051775;28;20264;-70
2024/03/09 02:40:52;;;;;;;69.82;13.48;;;;;;;;;;5046348;28;20213;-70
2024/03/09 02:43:23;;;;;;;72.20;13.15;;;;;;;;;;5049837;28;20232;-70
2024/03/09 02:45:52;;;;;;;69.18;12.32;;;;;;;;;;5051279;28;20625;-69
2024/03/09 02:48:19;;;;;;;68.72;12.48;;;;;;;;;;5050508;28;20202;-69
2024/03/09 02:50:46;;;;;;;69.03;12.38;;;;;;;;;;5051089;28;20573;-69
2024/03/09 02:53:13;;;;;;;71.03;12.88;;;;;;;;;;5051316;28;20205;-70
2024/03/09 02:55:40;;;;;;;70.07;13.50;;;;;;;;;;5051026;28;20205;-70
2024/03/09 02:58:07;;;;;;;69.03;12.68;;;;;;;;;;5051077;28;20228;-70
2024/03/09 03:00:36;;;;;;;72.32;13.80;;;;;;;;;;5050567;28;20697;-70
2024/03/09 03:05:48;;;;;;;71.50;13.85;;;;;;;;;;5049837;28;20703;-69
2024/03/09 03:08:15;;;;;;;69.68;12.98;;;;;;;;;;5051349;28;20226;-69
2024/03/09 03:10:42;;;;;;;69.90;13.10;;;;;;;;;;5050918;28;20203;-69
2024/03/09 03:13:09;;;;;;;73.07;12.82;;;;;;;;;;5051270;28;20199;-69
2024/03/09 03:15:39;;;;;;;70.78;13.68;;;;;;;;;;5046291;28;20202;-70
2024/03/09 03:18:08;;;;;;;71.03;13.07;;;;;;;;;;5051015;28;20258;-69
2024/03/09 03:20:35;;;;;;;69.70;12.50;;;;;;;;;;5042854;28;20246;-70
2024/03/09 03:23:03;;;;;;;71.43;12.50;;;;;;;;;;5047117;28;20234;-70
2024/03/09 03:25:30;;;;;;;68.28;12.18;;;;;;;;;;5050846;28;20203;-70
2024/03/09 03:27:57;;;;;;;69.97;13.80;;;;;;;;;;5050880;28;20233;-69
2024/03/09 03:30:25;;;;;;;71.38;13.48;;;;;;;;;;5050835;28;20268;-69
2024/03/09 03:32:54;;;;;;;70.47;13.13;;;;;;;;;;5050465;28;20614;-70
2024/03/09 03:35:24;;;;;;;75.63;13.43;;;;;;;;;;5050560;28;20233;-69
2024/03/09 03:37:53;;;;;;;68.13;12.13;;;;;;;;;;5051358;28;20227;-68
2024/03/09 03:40:22;;;;;;;68.43;12.13;;;;;;;;;;5050860;28;20254;-69
2024/03/09 03:42:50;;;;;;;68.32;12.05;;;;;;;;;;5050851;28;20310;-69
2024/03/09 03:45:17;;;;;;;70.88;14.05;;;;;;;;;;5050069;28;20285;-70
2024/03/09 03:47:45;;;;;;;69.43;12.95;;;;;;;;;;5051164;28;20224;-70
2024/03/09 03:50:13;;;;;;;69.93;13.10;;;;;;;;;;5054659;28;20253;-70
2024/03/09 03:52:41;;;;;;;68.72;11.80;;;;;;;;;;5046759;28;20233;-69
2024/03/09 03:55:11;;;;;;;68.65;13.18;;;;;;;;;;5054695;28;20210;-69
2024/03/09 03:57:39;;;;;;;75.75;14.75;;;;;;;;;;5054421;28;20218;-69
2024/03/09 04:00:09;;;;;;;70.03;13.07;;;;;;;;;;5054333;28;20204;-69
2024/03/09 04:02:36;;;;;;;71.25;12.93;;;;;;;;;;5046672;28;20305;-69
2024/03/09 04:05:04;;;;;;;66.93;12.10;;;;;;;;;;5054266;28;20206;-69
2024/03/09 04:07:32;;;;;;;70.73;13.20;;;;;;;;;;5054124;28;20611;-69
2024/03/09 04:10:11;;;;;;;70.05;12.82;;;;;;;;;;5054249;28;20450;-69
2024/03/09 04:12:40;;;;;;;71.60;14.10;;;;;;;;;;5046433;28;20206;-69
2024/03/09 04:15:08;;;;;;;68.35;13.18;;;;;;;;;;5053880;28;20544;-69
2024/03/09 04:17:35;;;;;;;73.20;13.50;;;;;;;;;;5045995;28;20733;-69
2024/03/09 04:20:04;;;;;;;68.97;12.75;;;;;;;;;;5054169;28;20205;-70
2024/03/09 04:22:33;;;;;;;67.80;12.27;;;;;;;;;;5046132;28;20203;-70
2024/03/09 04:25:02;;;;;;;73.60;12.80;;;;;;;;;;5053862;28;20453;-70
2024/03/09 04:27:29;;;;;;;69.38;12.13;;;;;;;;;;5053636;28;20227;-70
2024/03/09 04:29:56;;;;;;;66.75;12.38;;;;;;;;;;5054023;28;20552;-69
2024/03/09 04:32:25;;;;;;;71.67;13.33;;;;;;;;;;5053599;28;20207;-68
2024/03/09 04:34:53;;;;;;;68.32;11.82;;;;;;;;;;5047846;28;20446;-68
2024/03/09 04:37:25;;;;;;;74.75;12.48;;;;;;;;;;5053376;28;20238;-69
2024/03/09 04:39:55;;;;;;;69.53;13.88;;;;;;;;;;5053387;28;20327;-69
2024/03/09 04:42:24;;;;;;;69.57;12.30;;;;;;;;;;5045997;28;20262;-69
2024/03/09 04:44:51;;;;;;;67.20;12.95;;;;;;;;;;5053499;28;20314;-69
2024/03/09 04:47:18;;;;;;;66.85;12.07;;;;;;;;;;5053257;28;20222;-69
2024/03/09 04:49:45;;;;;;;70.07;13.67;;;;;;;;;;5053486;28;20207;-69
2024/03/09 04:52:13;;;;;;;69.47;13.55;;;;;;;;;;5045629;28;20971;-69
2024/03/09 04:54:43;;;;;;;66.57;11.90;;;;;;;;;;5053572;28;20563;-69
2024/03/09 04:57:14;;;;;;;68.35;12.05;;;;;;;;;;5053269;28;20850;-68
2024/03/09 04:59:42;;;;;;;77.57;13.83;;;;;;;;;;5053168;28;20694;-68
2024/03/09 05:02:09;;;;;;;68.90;12.63;;;;;;;;;;5052470;28;20471;-68
2024/03/09 05:04:36;;;;;;;67.47;12.50;;;;;;;;;;5052980;28;20493;-68
2024/03/09 05:07:03;;;;;;;68.43;11.73;;;;;;;;;;5052747;28;20465;-68
2024/03/09 05:09:31;;;;;;;70.85;12.35;;;;;;;;;;5053137;28;20211;-68
2024/03/09 05:11:58;;;;;;;72.65;12.45;;;;;;;;;;5049097;28;20204;-69
2024/03/09 05:14:27;;;;;;;67.03;11.60;;;;;;;;;;5051330;28;20275;-68
2024/03/09 05:16:54;;;;;;;65.82;10.82;;;;;;;;;;5052749;28;20467;-68
2024/03/09 05:19:21;;;;;;;68.03;11.98;;;;;;;;;;5053203;28;20229;-68
2024/03/09 05:21:48;;;;;;;66.38;11.43;;;;;;;;;;5053048;28;20213;-69
2024/03/09 05:24:16;;;;;;;68.00;11.60;;;;;;;;;;5050544;28;20222;-68
2024/03/09 05:26:43;;;;;;;70.20;12.50;;;;;;;;;;5052664;28;20230;-68
2024/03/09 05:29:12;;;;;;;68.90;11.90;;;;;;;;;;5052749;28;20951;-69
2024/03/09 05:31:40;;;;;;;78.00;15.02;;;;;;;;;;5053184;28;20831;-68
2024/03/09 05:34:08;;;;;;;67.80;12.40;;;;;;;;;;5051983;28;20213;-69
2024/03/09 05:36:35;;;;;;;69.55;12.20;;;;;;;;;;5052273;28;20774;-68
2024/03/09 05:39:05;;;;;;;67.38;11.98;;;;;;;;;;5051237;28;20206;-68
2024/03/09 05:41:32;;;;;;;70.17;12.80;;;;;;;;;;5052485;28;20215;-69
2024/03/09 05:43:59;;;;;;;69.68;12.98;;;;;;;;;;5050058;28;20490;-69
2024/03/09 05:46:27;;;;;;;70.20;12.30;;;;;;;;;;5052084;28;20226;-69
2024/03/09 05:48:56;;;;;;;68.10;12.02;;;;;;;;;;5052375;28;20204;-69
2024/03/09 05:51:23;;;;;;;67.75;12.05;;;;;;;;;;5052334;28;20254;-69
2024/03/09 05:53:50;;;;;;;74.80;13.00;;;;;;;;;;5051960;28;20249;-69
2024/03/09 05:56:18;;;;;;;71.53;13.13;;;;;;;;;;5051908;28;20838;-69
2024/03/09 05:58:46;;;;;;;68.82;12.63;;;;;;;;;;5052162;28;20213;-69
2024/03/09 06:01:13;;;;;;;71.35;13.77;;;;;;;;;;5052114;28;20215;-69
2024/03/09 06:03:42;;;;;;;68.25;12.20;;;;;;;;;;5045027;28;20224;-69
2024/03/09 06:06:12;;;;;;;70.30;12.77;;;;;;;;;;5051528;28;20214;-69
2024/03/09 06:08:39;;;;;;;70.32;13.55;;;;;;;;;;5052046;28;20360;-69
2024/03/09 06:11:07;;;;;;;72.45;12.55;;;;;;;;;;5051442;28;20211;-69
2024/03/09 06:13:35;;;;;;;67.18;11.75;;;;;;;;;;5051894;28;20203;-69
2024/03/09 06:16:02;;;;;;;69.90;12.43;;;;;;;;;;5052206;28;20581;-69
2024/03/09 06:18:29;;;;;;;73.50;13.50;;;;;;;;;;5052285;28;20202;-69
2024/03/09 06:20:56;;;;;;;67.80;11.90;;;;;;;;;;5052066;28;20566;-69
2024/03/09 06:23:25;;;;;;;68.90;11.80;;;;;;;;;;5051732;28;20296;-69
2024/03/09 06:25:56;;;;;;;71.35;12.45;;;;;;;;;;5051607;28;20583;-69
2024/03/09 06:28:23;;;;;;;69.30;12.13;;;;;;;;;;5052052;28;20218;-70
2024/03/09 06:30:50;;;;;;;71.22;12.23;;;;;;;;;;5052349;28;20578;-70
2024/03/09 06:33:19;;;;;;;70.03;13.45;;;;;;;;;;5051729;28;20211;-70
2024/03/09 06:35:46;;;;;;;67.53;12.25;;;;;;;;;;5051508;28;20199;-71
2024/03/09 06:38:13;;;;;;;66.97;10.77;;;;;;;;;;5065630;22;20602;-70
2024/03/09 06:40:42;;;;;;;68.37;13.10;;;;;;;;;;5031384;28;20736;-69
2024/03/09 06:43:10;;;;;;;72.50;13.70;;;;;;;;;;5031760;28;20638;-70
2024/03/09 06:45:38;;;;;;;71.07;12.57;;;;;;;;;;5031614;28;20219;-70
2024/03/09 06:48:05;;;;;;;72.27;13.70;;;;;;;;;;5031892;28;20251;-70
2024/03/09 06:50:34;;;;;;;68.40;11.50;;;;;;;;;;5021161;28;20815;-70
2024/03/09 06:53:01;;;;;;;68.97;11.97;;;;;;;;;;5011726;28;20961;-70
2024/03/09 06:55:29;;;;;;;69.80;12.75;;;;;;;;;;5029829;28;20445;-70
2024/03/09 06:58:01;;;;;;;68.30;12.60;;;;;;;;;;5026516;28;20223;-70
2024/03/09 07:00:29;;;;;;;72.27;12.77;;;;;;;;;;5029569;28;20457;-70
2024/03/09 07:02:58;;;;;;;72.50;13.93;;;;;;;;;;5023670;28;20676;-70
2024/03/09 07:05:27;;;;;;;67.47;11.80;;;;;;;;;;5011615;28;20592;-70
2024/03/09 07:07:55;;;;;;;69.67;11.93;;;;;;;;;;5019901;28;20474;-70
2024/03/09 07:10:22;;;;;;;71.15;12.43;;;;;;;;;;5020427;28;20451;-70
2024/03/09 07:12:49;;;;;;;68.53;13.68;;;;;;;;;;5031888;28;20208;-70
2024/03/09 07:15:20;;;;;;;69.70;13.93;;;;;;;;;;5023499;28;20707;-70
2024/03/09 07:17:48;;;;;;;68.78;13.05;;;;;;;;;;5024295;28;20565;-70
2024/03/09 07:20:16;;;;;;;68.67;12.80;;;;;;;;;;5015310;28;20216;-70
2024/03/09 07:22:44;;;;;;;72.23;12.73;;;;;;;;;;5003604;28;20531;-70
2024/03/09 07:25:13;;;;;;;71.15;13.48;;;;;;;;;;5015522;28;20499;-70
2024/03/09 07:27:40;;;;;;;71.10;12.73;;;;;;;;;;5026879;28;20220;-70
2024/03/09 07:30:09;;;;;;;71.27;12.03;;;;;;;;;;5035132;28;20451;-69
2024/03/09 07:32:39;;;;;;;69.27;13.13;;;;;;;;;;5015884;28;20468;-69
2024/03/09 07:35:14;;;;;;;71.50;12.60;;;;;;;;;;5015730;28;20880;-70
2024/03/09 07:37:42;;;;;;;71.27;13.60;;;;;;;;;;5015431;28;20483;-69
2024/03/09 07:40:10;;;;;;;72.07;13.43;;;;;;;;;;5015596;28;20486;-69
2024/03/09 07:42:38;;;;;;;68.57;12.30;;;;;;;;;;5032006;28;20538;-69
2024/03/09 07:45:07;;;;;;;70.10;13.17;;;;;;;;;;5021259;28;20486;-70
2024/03/09 07:47:34;;;;;;;70.43;13.73;;;;;;;;;;5016486;28;20514;-70
2024/03/09 07:50:03;;;;;;;69.57;13.50;;;;;;;;;;5015146;28;20459;-70
2024/03/09 07:52:32;;;;;;;84.00;13.03;;;;;;;;;;5015334;28;20571;-71
2024/03/09 07:54:59;;;;;;;69.57;12.47;;;;;;;;;;5015376;28;20547;-71
2024/03/09 07:57:26;;;;;;;70.03;13.90;;;;;;;;;;5015286;28;20553;-70
2024/03/09 07:59:53;;;;;;;70.77;12.67;;;;;;;;;;5024256;28;20459;-70
2024/03/09 08:02:20;;;;;;;72.20;12.90;;;;;;;;;;5022967;28;20939;-70
2024/03/09 08:04:48;;;;;;;71.00;12.93;;;;;;;;;;5034533;28;20484;-70
2024/03/09 08:07:17;;;;;;;71.80;14.50;;;;;;;;;;5034440;28;20472;-70
2024/03/09 08:09:44;;;;;;;71.37;13.07;;;;;;;;;;5034467;28;20451;-70
2024/03/09 08:12:11;;;;;;;74.50;13.00;;;;;;;;;;5034444;28;20572;-70
2024/03/09 08:14:38;;;;;;;70.37;12.90;;;;;;;;;;5034448;28;20451;-70
2024/03/09 08:17:07;;;;;;;70.20;13.80;;;;;;;;;;5034299;28;20504;-70
2024/03/09 08:19:36;;;;;;;71.73;14.03;;;;;;;;;;5034236;28;20818;-70
2024/03/09 08:22:04;;;;;;;71.77;14.30;;;;;;;;;;5034163;28;20539;-70
2024/03/09 08:24:33;;;;;;;68.70;13.03;;;;;;;;;;5034085;28;20501;-71
2024/03/09 08:27:02;;;;;;;68.87;11.60;;;;;;;;;;5033904;28;20855;-70
2024/03/09 08:29:31;;;;;;;67.03;12.20;;;;;;;;;;5034197;28;20452;-71
2024/03/09 08:31:59;;;;;;;69.80;12.90;;;;;;;;;;5034085;28;20467;-70
2024/03/09 08:34:26;;;;;;;70.30;12.63;;;;;;;;;;5033578;28;20501;-69
2024/03/09 08:36:54;;;;;;;70.77;12.90;;;;;;;;;;5033920;28;20483;-72
2024/03/09 08:39:25;;;;;;;70.50;13.27;;;;;;;;;;5033832;28;20482;-71
2024/03/09 08:41:54;;;;;;;70.80;13.43;;;;;;;;;;5034142;28;20539;-70
2024/03/09 08:44:21;;;;;;;68.97;11.97;;;;;;;;;;5033982;28;20494;-70
2024/03/09 08:46:48;;;;;;;68.70;12.40;;;;;;;;;;5017631;28;20472;-70
2024/03/09 08:49:15;;;;;;;70.47;13.33;;;;;;;;;;5033804;28;20455;-70
2024/03/09 08:51:42;;;;;;;70.70;12.90;;;;;;;;;;5033602;28;20457;-70
2024/03/09 08:54:09;;;;;;;68.00;12.00;;;;;;;;;;5033611;28;20924;-70
2024/03/09 08:56:36;;;;;;;68.03;12.60;;;;;;;;;;5033460;28;20499;-70
2024/03/09 08:59:05;;;;;;;69.00;12.37;;;;;;;;;;5033531;28;20455;-69
2024/03/09 09:01:32;;;;;;;69.23;12.03;;;;;;;;;;5033484;28;20805;-70
2024/03/09 09:04:03;;;;;;;69.63;13.33;;;;;;;;;;5033446;28;20464;-70
2024/03/09 09:06:31;;;;;;;67.40;12.30;;;;;;;;;;5033443;28;20997;-71
2024/03/09 09:08:59;;;;;;;68.77;12.20;;;;;;;;;;5033355;28;20463;-71
2024/03/09 09:11:28;;;;;;;68.17;11.67;;;;;;;;;;5033282;28;20452;-70
2024/03/09 09:13:55;;;;;;;72.80;13.53;;;;;;;;;;5033293;28;20454;-70
2024/03/09 09:16:23;;;;;;;69.17;12.90;;;;;;;;;;5032995;28;20470;-70
2024/03/09 09:18:50;;;;;;;68.77;13.30;;;;;;;;;;5033309;28;20933;-70
2024/03/09 09:21:17;;;;;;;69.70;13.10;;;;;;;;;;5033045;28;20446;-70
2024/03/09 09:23:45;;;;;;;70.33;13.70;;;;;;;;;;5033114;28;20449;-69
2024/03/09 09:26:12;;;;;;;73.27;13.00;;;;;;;;;;5032663;28;20497;-69
2024/03/09 09:28:39;;;;;;;69.33;11.70;;;;;;;;;;5033066;28;20456;-69
2024/03/09 09:31:06;;;;;;;67.40;11.63;;;;;;;;;;5032912;28;20536;-69
2024/03/09 09:33:34;;;;;;;67.50;11.80;;;;;;;;;;5032760;28;20829;-69
2024/03/09 09:36:02;;;;;;;65.30;10.90;;;;;;;;;;5032701;28;20456;-69
2024/03/09 09:38:31;;;;;;;68.43;11.53;;;;;;;;;;5032289;28;20456;-69
2024/03/09 09:40:59;;;;;;;68.20;11.37;;;;;;;;;;5012995;28;20462;-69
2024/03/09 09:43:26;;;;;;;68.00;10.67;;;;;;;;;;5012882;28;20517;-69
2024/03/09 09:45:54;;;;;;;70.10;12.83;;;;;;;;;;5012004;28;20509;-69
2024/03/09 09:48:21;;;;;;;65.33;11.17;;;;;;;;;;5012868;28;20464;-69
2024/03/09 09:50:50;;;;;;;69.03;11.43;;;;;;;;;;5012969;28;20840;-69
2024/03/09 09:53:18;;;;;;;69.40;11.37;;;;;;;;;;5013131;28;20459;-69
2024/03/09 09:55:46;;;;;;;67.27;11.50;;;;;;;;;;5012891;28;20776;-70
2024/03/09 09:58:13;;;;;;;66.50;11.17;;;;;;;;;;5012835;28;20471;-69
2024/03/09 10:00:41;;;;;;;67.20;11.07;;;;;;;;;;5012588;28;20963;-70
2024/03/09 10:03:08;;;;;;;67.67;10.47;;;;;;;;;;5012556;28;20461;-70
2024/03/09 10:05:35;;;;;;;65.00;10.57;;;;;;;;;;5012490;28;20581;-70
2024/03/09 10:08:09;;;;;;;66.63;10.90;;;;;;;;;;5012719;28;20479;-70
2024/03/09 10:10:38;;;;;;;67.60;10.60;;;;;;;;;;5012495;28;20455;-70
2024/03/09 10:13:05;;;;;;;65.50;10.63;;;;;;;;;;5012433;28;20554;-70
2024/03/09 10:15:32;;;;;;;67.23;11.37;;;;;;;;;;5012071;28;20449;-69
2024/03/09 10:17:59;;;;;;;65.90;10.03;;;;;;;;;;5012395;28;20477;-70
2024/03/09 10:20:27;;;;;;;63.20;9.00;;;;;;;;;;5002244;28;20450;-70
2024/03/09 10:22:54;;;;;;;65.60;10.63;;;;;;;;;;5009497;28;20445;-70
2024/03/09 10:25:27;;;;;;;67.33;10.33;;;;;;;;;;5004759;28;20528;-70
2024/03/09 10:27:58;;;;;;;63.83;8.83;;;;;;;;;;5019751;28;20474;-69
2024/03/09 10:30:25;;;;;;;62.70;8.90;;;;;;;;;;5014990;28;20458;-70
2024/03/09 10:32:54;;;;;;;64.97;8.83;;;;;;;;;;5008345;28;20455;-71
2024/03/09 10:35:22;;;;;;;63.03;9.07;;;;;;;;;;5012161;28;20446;-71
2024/03/09 10:37:55;;;;;;;64.10;9.50;;;;;;;;;;5011948;28;20478;-72
2024/03/09 10:40:22;;;;;;;63.80;9.97;;;;;;;;;;5015110;28;20877;-71
2024/03/09 10:42:52;;;;;;;61.93;8.73;;;;;;;;;;5003194;28;20450;-71
2024/03/09 10:45:20;;;;;;;62.70;10.00;;;;;;;;;;5024749;28;20557;-71
2024/03/09 10:47:52;;;;;;;62.57;9.13;;;;;;;;;;5012795;28;20839;-70
2024/03/09 10:50:23;;;;;;;62.53;9.67;;;;;;;;;;5011709;28;20537;-70
2024/03/09 10:52:54;;;;;;;61.30;8.37;;;;;;;;;;5011592;28;20449;-70
2024/03/09 10:55:24;;;;;;;63.17;9.70;;;;;;;;;;5011863;28;20446;-70
2024/03/09 10:57:54;;;;;;;61.77;8.70;;;;;;;;;;5019804;28;20833;-71
2024/03/09 11:00:28;;;;;;;63.57;9.27;;;;;;;;;;5011690;28;20451;-71
2024/03/09 11:02:55;;;;;;;60.80;7.90;;;;;;;;;;5007364;28;20504;-71
2024/03/09 11:05:23;;;;;;;62.10;8.23;;;;;;;;;;5015734;28;20483;-71
2024/03/09 11:07:51;;;;;;;63.47;9.10;;;;;;;;;;5019882;28;20471;-70
2024/03/09 11:10:18;;;;;;;61.90;9.20;;;;;;;;;;5026435;28;20446;-70
2024/03/09 11:12:46;;;;;;;60.90;7.77;;;;;;;;;;5014966;28;20457;-71
2024/03/09 11:15:15;;;;;;;61.70;7.07;;;;;;;;;;5025271;28;20450;-69
2024/03/09 11:17:44;;;;;;;64.20;7.27;;;;;;;;;;5012868;28;20476;-70
2024/03/09 11:20:13;;;;;;;61.13;7.77;;;;;;;;;;5022763;28;20453;-70
2024/03/09 11:22:41;;;;;;;60.60;7.10;;;;;;;;;;5031044;28;20449;-70
2024/03/09 11:25:11;;;;;;;59.57;6.83;;;;;;;;;;5031176;28;20581;-69
2024/03/09 11:27:39;;;;;;;60.87;7.53;;;;;;;;;;5030948;28;20477;-70
2024/03/09 11:30:08;;;;;;;60.50;7.13;;;;;;;;;;5030954;28;20449;-69
2024/03/09 11:32:37;;;;;;;61.70;8.10;;;;;;;;;;5031143;28;20560;-69
2024/03/09 11:35:22;;;;;;;62.13;7.30;;;;;;;;;;5031195;28;20442;-69
2024/03/09 11:37:50;;;;;;;60.67;6.57;;;;;;;;;;5030874;28;20535;-69
2024/03/09 11:40:18;;;;;;;60.57;7.60;;;;;;;;;;5031052;28;20445;-69
2024/03/09 11:42:45;;;;;;;61.07;7.53;;;;;;;;;;5030975;28;20457;-69
2024/03/09 11:45:13;;;;;;;61.73;7.20;;;;;;;;;;5031079;28;20497;-68
2024/03/09 11:47:42;;;;;;;61.57;7.93;;;;;;;;;;5030752;28;20977;-68
2024/03/09 11:50:10;;;;;;;63.70;8.73;;;;;;;;;;5030994;28;20983;-69
2024/03/09 11:52:37;;;;;;;58.37;6.00;;;;;;;;;;5031410;28;20453;-69
2024/03/09 11:55:05;;;;;;;59.77;7.00;;;;;;;;;;5030982;28;20449;-70
2024/03/09 11:57:37;;;;;;;61.07;7.40;;;;;;;;;;5030468;28;20536;-70
2024/03/09 12:00:05;;;;;;;59.77;6.73;;;;;;;;;;5013538;28;20497;-70
2024/03/09 12:02:34;;;;;;;60.23;7.07;;;;;;;;;;5012660;28;20483;-70
2024/03/09 12:05:04;;;;;;;61.27;6.63;;;;;;;;;;5018683;28;20455;-70
2024/03/09 12:07:31;;;;;;;62.77;7.00;;;;;;;;;;5011022;28;20580;-70
2024/03/09 12:10:01;;;;;;;59.70;5.97;;;;;;;;;;5013220;28;20802;-70
2024/03/09 12:12:28;;;;;;;60.17;5.90;;;;;;;;;;5014765;28;20452;-70
2024/03/09 12:14:55;;;;;;;58.17;5.10;;;;;;;;;;5014621;28;20442;-70
2024/03/09 12:17:23;;;;;;;59.90;6.03;;;;;;;;;;5014565;28;20501;-70
2024/03/09 12:19:50;;;;;;;58.77;5.37;;;;;;;;;;5014386;28;20454;-70
2024/03/09 12:22:19;;;;;;;58.70;5.60;;;;;;;;;;5014195;28;20884;-69
2024/03/09 12:24:46;;;;;;;58.17;5.40;;;;;;;;;;5013675;28;20458;-69
2024/03/09 12:27:14;;;;;;;59.90;5.50;;;;;;;;;;5022670;28;20471;-69
2024/03/09 12:29:41;;;;;;;58.93;5.93;;;;;;;;;;5013991;28;20543;-71
2024/03/09 12:32:08;;;;;;;60.10;6.50;;;;;;;;;;5018700;28;20457;-70
2024/03/09 12:34:36;;;;;;;58.80;5.70;;;;;;;;;;5019178;28;20448;-71
2024/03/09 12:37:03;;;;;;;60.30;6.30;;;;;;;;;;5013611;28;21061;-71
2024/03/09 12:39:32;;;;;;;60.20;6.00;;;;;;;;;;5022511;28;20450;-71
2024/03/09 12:42:00;;;;;;;59.33;5.63;;;;;;;;;;5014116;28;20450;-71
2024/03/09 12:44:35;;;;;;;58.60;5.50;;;;;;;;;;5013777;28;20537;-71
2024/03/09 12:47:03;;;;;;;58.17;5.33;;;;;;;;;;5020074;28;20482;-71
2024/03/09 12:49:33;;;;;;;60.33;6.23;;;;;;;;;;5010313;28;20927;-71
2024/03/09 12:52:02;;;;;;;57.90;5.27;;;;;;;;;;5022394;28;20461;-71
2024/03/09 12:54:30;;;;;;;58.60;5.53;;;;;;;;;;5014035;28;20454;-71
2024/03/09 12:57:03;;;;;;;58.40;4.83;;;;;;;;;;5013891;28;21077;-71
2024/03/09 12:59:30;;;;;;;58.43;5.10;;;;;;;;;;5014265;28;20574;-68
2024/03/09 13:01:57;;;;;;;58.00;4.70;;;;;;;;;;5014228;28;20443;-70
2024/03/09 13:04:24;;;;;;;58.07;4.63;;;;;;;;;;5015168;28;20778;-70
2024/03/09 13:06:51;;;;;;;57.57;4.67;;;;;;;;;;5014676;28;20466;-69
2024/03/09 13:09:18;;;;;;;57.20;3.67;;;;;;;;;;5014907;28;20453;-69
2024/03/09 13:11:47;;;;;;;60.40;4.10;;;;;;;;;;5014762;28;20453;-69
2024/03/09 13:14:20;;;;;;;58.57;4.50;;;;;;;;;;5013774;28;20455;-70
2024/03/09 13:16:49;;;;;;;57.87;4.27;;;;;;;;;;5013101;28;20910;-70
2024/03/09 13:19:17;;;;;;;59.00;4.90;;;;;;;;;;5027334;28;20450;-69
2024/03/09 13:21:48;;;;;;;58.10;4.80;;;;;;;;;;5033160;28;20511;-69
2024/03/09 13:24:16;;;;;;;58.10;4.77;;;;;;;;;;5032993;28;20492;-69
2024/03/09 13:26:45;;;;;;;59.13;5.13;;;;;;;;;;5032361;28;20469;-70
2024/03/09 13:29:13;;;;;;;58.23;4.80;;;;;;;;;;5033012;28;20449;-70
2024/03/09 13:31:41;;;;;;;58.00;4.73;;;;;;;;;;5032976;28;20477;-70
2024/03/09 13:34:12;;;;;;;58.37;4.43;;;;;;;;;;5033028;28;20814;-70
2024/03/09 13:36:41;;;;;;;59.60;5.13;;;;;;;;;;5032335;28;20500;-70
2024/03/09 13:39:12;;;;;;;58.00;4.80;;;;;;;;;;5031158;28;20544;-71
2024/03/09 13:41:40;;;;;;;60.27;5.43;;;;;;;;;;5018147;28;20461;-69
2024/03/09 13:44:08;;;;;;;58.40;4.90;;;;;;;;;;5008297;28;20458;-70
2024/03/09 13:46:35;;;;;;;59.00;5.50;;;;;;;;;;5020837;28;20493;-70
2024/03/09 13:49:10;;;;;;;58.07;5.07;;;;;;;;;;5019892;28;20453;-70
2024/03/09 13:51:37;;;;;;;59.70;5.53;;;;;;;;;;5017554;28;20442;-70
2024/03/09 13:54:05;;;;;;;59.50;4.80;;;;;;;;;;5004581;28;20901;-70
2024/03/09 13:56:33;;;;;;;57.87;4.80;;;;;;;;;;5019843;28;20489;-70
2024/03/09 13:59:00;;;;;;;59.10;5.20;;;;;;;;;;5012947;28;20450;-70
2024/03/09 14:01:28;;;;;;;58.73;5.17;;;;;;;;;;5009500;28;20461;-70
2024/03/09 14:03:57;;;;;;;59.30;5.17;;;;;;;;;;5016731;28;20463;-68
2024/03/09 14:06:26;;;;;;;57.57;5.00;;;;;;;;;;5017254;28;20471;-68
2024/03/09 14:08:54;;;;;;;58.50;5.00;;;;;;;;;;5014482;28;20534;-69
2024/03/09 14:11:28;;;;;;;57.67;4.63;;;;;;;;;;5000764;28;20489;-69
2024/03/09 14:13:56;;;;;;;59.23;4.40;;;;;;;;;;5016330;28;20456;-69
2024/03/09 14:16:26;;;;;;;58.87;5.27;;;;;;;;;;5014554;28;20495;-70
2024/03/09 14:18:53;;;;;;;58.83;5.03;;;;;;;;;;5017459;28;20462;-70
2024/03/09 14:21:24;;;;;;;57.70;4.40;;;;;;;;;;5005273;28;20517;-70
2024/03/09 14:23:55;;;;;;;59.77;4.90;;;;;;;;;;5020312;28;20455;-69
2024/03/09 14:26:24;;;;;;;63.40;5.33;;;;;;;;;;5016922;28;20478;-69
2024/03/09 14:28:54;;;;;;;63.00;4.47;;;;;;;;;;5013431;28;20537;-70